Time;durP1;ratioP1;P1;durP2;ratioP2;P2;SDS_P1;SDS_P2;PMS_P1;PMS_P2;Temp;Humidity;BMP_temperature;BMP_pressure;BME280_temperature;BME280_humidity;BME280_pressure;Samples;Min_cycle;Max_cycle;Signal;HPM_P1;HPM_P2
2022/03/11 00:01:10;;;;;;;21.08;9.98;;;;;;;8.20;53.88;100842.22;8318611;28;20046;-63
2022/03/11 00:05:11;;;;;;;21.05;10.35;;;;;;;8.35;53.68;100837.53;8329463;28;20073;-63
2022/03/11 00:09:12;;;;;;;20.08;10.32;;;;;;;8.26;53.70;100849.03;8333101;28;20395;-63
2022/03/11 00:13:12;;;;;;;19.33;9.65;;;;;;;8.33;53.83;100844.88;8330161;28;20079;-64
2022/03/11 00:17:13;;;;;;;20.38;9.38;;;;;;;8.27;53.79;100839.94;8328319;28;20073;-63
2022/03/11 00:21:13;;;;;;;19.27;8.95;;;;;;;8.23;53.82;100841.16;8348584;28;20056;-63
2022/03/11 00:25:14;;;;;;;18.45;9.00;;;;;;;8.39;53.45;100836.31;8331402;28;20083;-63
2022/03/11 00:29:15;;;;;;;19.40;10.13;;;;;;;8.28;53.65;100841.66;8332824;28;20042;-63
2022/03/11 00:33:16;;;;;;;16.75;8.73;;;;;;;8.22;53.93;100843.00;8326783;28;20052;-63
2022/03/11 00:37:16;;;;;;;17.33;9.40;;;;;;;8.11;53.86;100844.78;8306616;28;20042;-63
2022/03/11 00:41:17;;;;;;;17.30;9.50;;;;;;;8.04;54.05;100837.16;8302807;28;20041;-64
2022/03/11 00:45:18;;;;;;;19.70;10.45;;;;;;;7.96;54.61;100842.25;8320158;28;20490;-64
2022/03/11 00:49:18;;;;;;;16.92;9.27;;;;;;;8.09;54.31;100845.72;8314137;28;20038;-64
2022/03/11 00:53:18;;;;;;;18.90;9.02;;;;;;;8.00;54.22;100845.59;8321002;28;20069;-63
2022/03/11 00:57:19;;;;;;;25.23;10.13;;;;;;;7.96;54.32;100853.03;8330351;28;20045;-63
2022/03/11 01:01:20;;;;;;;20.45;10.25;;;;;;;8.00;54.26;100835.66;8348454;28;20086;-63
2022/03/11 01:05:22;;;;;;;17.42;9.23;;;;;;;7.92;54.42;100835.41;8345956;28;20033;-63
2022/03/11 01:09:23;;;;;;;18.20;9.18;;;;;;;7.92;54.36;100831.84;8347994;28;20034;-64
2022/03/11 01:13:23;;;;;;;18.52;9.55;;;;;;;8.00;53.94;100827.56;8332607;28;20033;-64
2022/03/11 01:17:23;;;;;;;19.05;9.25;;;;;;;7.97;53.97;100822.41;8327548;28;20596;-63
2022/03/11 01:21:24;;;;;;;21.13;9.32;;;;;;;7.97;54.20;100818.91;8345026;28;20033;-66
2022/03/11 01:25:24;;;;;;;19.90;9.02;;;;;;;8.01;53.95;100813.16;8336265;28;20033;-64
2022/03/11 01:29:25;;;;;;;18.55;8.70;;;;;;;7.96;53.89;100807.25;8338760;28;20034;-64
2022/03/11 01:33:25;;;;;;;19.33;9.60;;;;;;;7.76;54.48;100810.63;8338408;28;20033;-64
2022/03/11 01:37:26;;;;;;;15.10;8.60;;;;;;;7.57;55.06;100812.94;8337473;28;20057;-64
2022/03/11 01:41:26;;;;;;;18.45;9.02;;;;;;;7.63;54.88;100811.66;8337674;28;20033;-64
2022/03/11 01:45:26;;;;;;;19.95;9.40;;;;;;;7.67;54.55;100803.25;8337106;28;20095;-64
2022/03/11 01:49:27;;;;;;;18.00;8.77;;;;;;;7.71;54.31;100793.94;8351497;28;20035;-64
2022/03/11 01:53:27;;;;;;;17.70;8.48;;;;;;;7.78;54.10;100795.19;8335798;28;20450;-64
2022/03/11 01:57:27;;;;;;;25.23;9.10;;;;;;;8.03;53.35;100795.03;8335823;28;20120;-64
2022/03/11 02:01:28;;;;;;;19.17;8.07;;;;;;;7.88;53.45;100789.97;8336743;28;20038;-64
2022/03/11 02:05:28;;;;;;;15.35;8.00;;;;;;;7.89;53.42;100787.19;8336500;28;20038;-64
2022/03/11 02:09:29;;;;;;;15.38;8.48;;;;;;;7.84;53.43;100783.97;8335346;28;20036;-64
2022/03/11 02:13:47;;;;;;;16.38;8.68;;;;;;;7.69;53.79;100771.66;8347630;28;20041;-64
2022/03/11 02:17:47;;;;;;;18.70;8.73;;;;;;;7.54;54.09;100767.44;8308686;28;20506;-64
2022/03/11 02:21:52;;;;;;;15.85;8.20;;;;;;;7.42;54.46;100760.31;8334717;28;20406;-64
2022/03/11 02:25:52;;;;;;;14.95;8.57;;;;;;;7.15;55.39;100759.69;8336826;28;20072;-64
2022/03/11 02:29:53;;;;;;;16.98;8.43;;;;;;;7.18;55.25;100759.44;8335904;28;20510;-64
2022/03/11 02:33:54;;;;;;;17.17;8.75;;;;;;;7.23;55.14;100751.88;8350152;28;20041;-64
2022/03/11 02:37:54;;;;;;;16.65;8.57;;;;;;;7.32;54.96;100759.28;8334479;28;20045;-64
2022/03/11 02:41:54;;;;;;;14.73;8.30;;;;;;;7.37;55.24;100756.25;8316847;28;20068;-64
2022/03/11 02:45:55;;;;;;;13.02;7.93;;;;;;;7.41;55.01;100753.22;8333519;28;20037;-64
2022/03/11 02:49:55;;;;;;;15.60;8.55;;;;;;;7.45;54.81;100756.53;8344151;28;20409;-64
2022/03/11 02:53:56;;;;;;;15.77;8.20;;;;;;;7.28;55.37;100752.41;8367531;28;20064;-64
2022/03/11 02:57:56;;;;;;;16.15;8.35;;;;;;;7.20;55.55;100748.59;8364477;28;20120;-64
2022/03/11 03:01:57;;;;;;;16.67;7.88;;;;;;;7.14;55.46;100751.72;8364338;28;20029;-64
2022/03/11 03:05:58;;;;;;;21.05;8.95;;;;;;;7.05;55.98;100750.56;8301500;28;20481;-63
2022/03/11 03:09:58;;;;;;;18.73;8.60;;;;;;;6.98;56.16;100751.97;8300737;28;20061;-64
2022/03/11 03:13:59;;;;;;;13.95;8.13;;;;;;;7.05;56.16;100761.31;8300177;28;20042;-64
2022/03/11 03:17:59;;;;;;;15.43;8.07;;;;;;;7.02;56.67;100750.78;8321257;28;20046;-64
2022/03/11 03:22:00;;;;;;;19.88;7.75;;;;;;;7.02;56.55;100749.94;8361239;28;20078;-67
2022/03/11 03:26:01;;;;;;;15.18;7.55;;;;;;;7.00;57.13;100751.88;8364713;28;20040;-65
2022/03/11 03:30:05;;;;;;;17.42;8.88;;;;;;;6.96;57.36;100756.63;8365503;28;20041;-63
2022/03/11 03:34:05;;;;;;;18.27;8.57;;;;;;;6.88;57.88;100745.56;8363537;28;20065;-64
2022/03/11 03:38:06;;;;;;;16.42;7.82;;;;;;;7.06;57.55;100740.66;8362088;28;20041;-64
2022/03/11 03:42:08;;;;;;;15.50;8.18;;;;;;;7.09;57.75;100735.94;8364257;28;20452;-63
2022/03/11 03:46:08;;;;;;;12.35;7.90;;;;;;;7.07;57.86;100743.25;8362926;28;20055;-63
2022/03/11 03:50:09;;;;;;;18.33;8.37;;;;;;;6.99;58.25;100732.22;8349137;28;20033;-64
2022/03/11 03:54:10;;;;;;;16.42;8.05;;;;;;;7.00;58.37;100735.75;8336833;28;20280;-64
2022/03/11 03:58:10;;;;;;;15.65;8.63;;;;;;;6.87;58.80;100745.69;8331744;28;20045;-65
2022/03/11 04:02:11;;;;;;;15.18;8.52;;;;;;;6.86;59.17;100749.34;8329886;28;20044;-64
2022/03/11 04:06:11;;;;;;;16.63;8.25;;;;;;;6.82;59.06;100743.31;8328456;28;20064;-64
2022/03/11 04:10:13;;;;;;;18.08;8.68;;;;;;;6.85;59.25;100739.56;8328530;28;20052;-64
2022/03/11 04:14:14;;;;;;;16.33;8.48;;;;;;;6.80;59.69;100737.19;8345056;28;20037;-64
2022/03/11 04:18:14;;;;;;;22.65;9.20;;;;;;;6.68;60.18;100730.03;8327423;28;20509;-64
2022/03/11 04:22:15;;;;;;;17.40;8.60;;;;;;;6.69;60.12;100731.75;8358982;28;20057;-64
2022/03/11 04:26:16;;;;;;;13.57;8.30;;;;;;;6.67;60.25;100728.31;8361075;28;20041;-64
2022/03/11 04:30:16;;;;;;;22.38;9.52;;;;;;;6.74;60.24;100734.13;8336774;28;20076;-64
2022/03/11 04:34:17;;;;;;;19.70;9.45;;;;;;;6.73;60.61;100722.50;8320267;28;20033;-64
2022/03/11 04:38:17;;;;;;;17.73;8.88;;;;;;;6.76;60.35;100743.78;8327597;28;20054;-64
2022/03/11 04:42:18;;;;;;;22.33;9.80;;;;;;;6.88;59.96;100742.88;8327663;28;20038;-64
2022/03/11 04:46:18;;;;;;;18.60;9.40;;;;;;;6.80;60.37;100739.88;8303625;28;20046;-64
2022/03/11 04:50:19;;;;;;;19.85;9.43;;;;;;;6.79;60.40;100730.13;8338888;28;20037;-64
2022/03/11 04:54:19;;;;;;;20.40;8.98;;;;;;;6.69;60.86;100729.06;8360701;28;20029;-65
2022/03/11 04:58:20;;;;;;;21.35;10.50;;;;;;;6.62;61.13;100729.63;8341592;28;20041;-65
2022/03/11 05:02:27;;;;;;;21.10;10.23;;;;;;;6.59;61.50;100730.69;8334115;28;20510;-65
2022/03/11 05:06:27;;;;;;;21.65;9.88;;;;;;;6.43;61.77;100730.06;8324908;28;20449;-65
2022/03/11 05:10:28;;;;;;;17.75;8.88;;;;;;;6.40;62.30;100735.66;8351922;28;20055;-65
2022/03/11 05:14:28;;;;;;;19.92;9.60;;;;;;;6.25;62.62;100725.16;8367865;28;20033;-65
2022/03/11 05:18:29;;;;;;;21.00;9.73;;;;;;;6.29;62.52;100732.91;8351060;28;20405;-65
2022/03/11 05:22:29;;;;;;;24.48;11.45;;;;;;;6.27;62.99;100737.50;8325986;28;20085;-65
2022/03/11 05:26:30;;;;;;;22.88;10.85;;;;;;;6.17;62.92;100723.03;8314333;28;20060;-65
2022/03/11 05:30:30;;;;;;;21.63;11.40;;;;;;;6.13;63.16;100726.03;8330974;28;20048;-65
2022/03/11 05:34:30;;;;;;;25.90;11.40;;;;;;;6.26;62.65;100717.00;8318675;28;20125;-65
2022/03/11 05:38:31;;;;;;;26.50;10.23;;;;;;;6.04;63.37;100728.38;8306315;28;20033;-65
2022/03/11 05:42:31;;;;;;;26.65;12.40;;;;;;;6.09;63.47;100725.38;8301707;28;20037;-65
2022/03/11 05:46:32;;;;;;;23.30;11.82;;;;;;;6.16;63.01;100726.66;8330433;28;20552;-65
2022/03/11 05:50:32;;;;;;;22.00;11.75;;;;;;;6.17;62.98;100723.03;8339151;28;20037;-65
2022/03/11 05:54:33;;;;;;;22.35;11.93;;;;;;;6.15;63.48;100721.38;8361014;28;20033;-65
2022/03/11 05:58:33;;;;;;;21.75;11.13;;;;;;;6.20;63.02;100709.38;8335477;28;20037;-65
2022/03/11 06:02:37;;;;;;;24.55;12.43;;;;;;;6.16;63.16;100718.59;8335568;28;20418;-65
2022/03/11 06:06:38;;;;;;;26.63;12.82;;;;;;;6.11;63.33;100712.72;8327171;28;20124;-65
2022/03/11 06:10:38;;;;;;;23.27;12.10;;;;;;;6.12;63.58;100713.56;8343737;28;20093;-65
2022/03/11 06:14:38;;;;;;;27.20;12.35;;;;;;;6.09;63.54;100706.59;8335354;28;20038;-65
2022/03/11 06:18:39;;;;;;;25.95;12.10;;;;;;;6.14;63.67;100707.13;8326270;28;20121;-65
2022/03/11 06:22:48;;;;;;;29.80;13.68;;;;;;;6.13;63.83;100710.75;8336495;28;20494;-65
2022/03/11 06:26:48;;;;;;;27.23;13.93;;;;;;;6.13;64.13;100704.56;8305186;28;20037;-65
2022/03/11 06:30:49;;;;;;;41.22;17.15;;;;;;;6.21;63.98;100702.16;8330848;28;20042;-65
2022/03/11 06:34:50;;;;;;;39.65;17.75;;;;;;;6.25;63.79;100715.25;8306734;28;20571;-65
2022/03/11 06:38:50;;;;;;;28.52;15.85;;;;;;;6.35;63.74;100726.22;8290062;28;20148;-65
2022/03/11 06:42:51;;;;;;;31.27;14.50;;;;;;;6.41;63.63;100720.41;8292787;28;20134;-65
2022/03/11 06:46:51;;;;;;;30.38;14.20;;;;;;;6.53;63.45;100725.78;8292221;28;20053;-65
2022/03/11 06:50:52;;;;;;;31.48;13.98;;;;;;;6.63;63.24;100726.81;8330272;28;20054;-65
2022/03/11 06:54:52;;;;;;;29.10;13.70;;;;;;;6.76;62.84;100730.34;8324224;28;20057;-65
2022/03/11 06:58:53;;;;;;;28.10;14.60;;;;;;;6.82;62.74;100737.94;8356145;28;20523;-65
2022/03/11 07:02:54;;;;;;;29.15;14.52;;;;;;;6.87;62.64;100734.94;8311771;28;20046;-65
2022/03/11 07:06:54;;;;;;;31.65;13.63;;;;;;;7.05;62.12;100728.22;8305639;28;20034;-65
2022/03/11 07:10:55;;;;;;;30.02;13.98;;;;;;;7.22;62.08;100733.19;8312550;28;20037;-65
2022/03/11 07:14:55;;;;;;;25.92;12.63;;;;;;;7.53;62.37;100719.13;8325304;28;20052;-63
2022/03/11 07:18:55;;;;;;;31.30;13.57;;;;;;;7.57;61.12;100732.25;8326438;28;20084;-65
2022/03/11 07:22:56;;;;;;;27.05;14.00;;;;;;;7.60;60.38;100723.94;8351587;28;20061;-65
2022/03/11 07:26:56;;;;;;;29.63;15.50;;;;;;;7.69;60.51;100731.31;8355846;28;20132;-65
2022/03/11 07:30:57;;;;;;;25.48;13.38;;;;;;;7.80;59.91;100738.56;8355280;28;20508;-65
2022/03/11 07:34:57;;;;;;;28.27;14.48;;;;;;;7.91;59.66;100736.78;8354702;28;20037;-65
2022/03/11 07:38:58;;;;;;;28.63;14.50;;;;;;;8.11;59.46;100727.13;8355457;28;20528;-65
2022/03/11 07:42:58;;;;;;;32.75;15.57;;;;;;;8.24;59.49;100721.69;8339311;28;20048;-65
2022/03/11 07:47:00;;;;;;;29.17;15.27;;;;;;;8.19;58.86;100721.16;8335971;28;20037;-65
2022/03/11 07:51:02;;;;;;;30.02;14.73;;;;;;;8.16;58.83;100707.91;8342317;28;20078;-65
2022/03/11 07:55:03;;;;;;;29.40;14.80;;;;;;;8.14;59.07;100717.97;8353686;28;20045;-65
2022/03/11 07:59:05;;;;;;;30.13;15.27;;;;;;;8.12;58.84;100722.63;8353458;28;20061;-65
2022/03/11 08:03:06;;;;;;;30.95;15.85;;;;;;;8.16;59.90;100702.53;8354061;28;20065;-65
2022/03/11 08:07:09;;;;;;;33.22;16.48;;;;;;;8.21;59.36;100721.88;8334962;28;20095;-65
2022/03/11 08:11:10;;;;;;;34.58;16.35;;;;;;;8.27;58.79;100710.66;8321725;28;20060;-65
2022/03/11 08:15:12;;;;;;;32.65;15.98;;;;;;;8.35;58.66;100719.00;8320121;28;20138;-65
2022/03/11 08:19:13;;;;;;;33.03;17.15;;;;;;;8.60;58.63;100703.44;8361863;28;20045;-65
2022/03/11 08:23:13;;;;;;;30.42;16.05;;;;;;;8.57;58.03;100703.69;8354122;28;20497;-66
2022/03/11 08:27:15;;;;;;;30.33;16.42;;;;;;;8.53;57.75;100685.19;8352411;28;20098;-65
2022/03/11 08:31:17;;;;;;;31.30;15.20;;;;;;;8.66;57.78;100681.38;8352412;28;20061;-65
2022/03/11 08:35:19;;;;;;;33.35;16.92;;;;;;;8.91;57.18;100677.56;8355104;28;20486;-65
2022/03/11 08:39:19;;;;;;;34.35;16.92;;;;;;;9.19;56.57;100667.06;8391667;28;20037;-65
2022/03/11 08:43:22;;;;;;;34.72;16.70;;;;;;;9.13;56.22;100662.16;8358270;28;20509;-65
2022/03/11 08:47:22;;;;;;;34.40;16.73;;;;;;;9.29;56.28;100653.63;8357136;28;20040;-66
2022/03/11 08:51:23;;;;;;;27.85;16.15;;;;;;;9.26;56.17;100665.53;8350222;28;20124;-66
2022/03/11 08:55:23;;;;;;;33.25;16.45;;;;;;;9.55;55.86;100646.91;8359503;28;20091;-65
2022/03/11 08:59:24;;;;;;;35.28;16.67;;;;;;;9.47;55.36;100642.16;8357790;28;20048;-65
2022/03/11 09:03:24;;;;;;;29.20;15.15;;;;;;;9.77;54.96;100654.84;8358462;28;20478;-66
2022/03/11 09:07:29;;;;;;;36.55;16.10;;;;;;;9.97;55.04;100643.16;8358762;28;20029;-65
2022/03/11 09:11:29;;;;;;;;;;;;;;;10.19;54.95;100651.16;8388869;28;20099;-65
2022/03/11 09:15:29;;;;;;;30.87;15.73;;;;;;;10.32;54.30;100650.91;8330146;28;20004;-65
2022/03/11 09:19:30;;;;;;;33.85;15.90;;;;;;;10.13;54.42;100635.50;8314290;28;20040;-65
2022/03/11 09:23:30;;;;;;;25.83;14.05;;;;;;;10.84;52.98;100629.03;8359272;28;20040;-65
2022/03/11 09:27:31;;;;;;;33.60;16.40;;;;;;;11.58;51.33;100650.00;8358213;28;20033;-65
2022/03/11 09:31:31;;;;;;;25.60;13.85;;;;;;;12.04;50.17;100630.28;8359127;28;20045;-65
2022/03/11 09:35:31;;;;;;;32.72;16.50;;;;;;;12.97;50.00;100640.84;8356757;28;20033;-65
2022/03/11 09:39:32;;;;;;;28.13;16.33;;;;;;;13.48;48.61;100632.03;8356609;28;20056;-65
2022/03/11 09:43:33;;;;;;;22.13;13.43;;;;;;;13.79;47.00;100628.72;8358297;28;20124;-65
2022/03/11 09:47:34;;;;;;;28.50;14.98;;;;;;;13.67;47.26;100631.84;8344492;28;20040;-65
2022/03/11 09:51:35;;;;;;;27.98;16.38;;;;;;;14.23;47.24;100626.84;8340948;28;20041;-65
2022/03/11 09:55:35;;;;;;;27.75;15.77;;;;;;;14.21;46.26;100631.53;8330274;28;20052;-65
2022/03/11 09:59:35;;;;;;;25.48;15.00;;;;;;;14.11;46.66;100638.09;8306580;28;20243;-65
2022/03/11 10:03:36;;;;;;;28.17;14.85;;;;;;;14.11;45.99;100633.53;8291549;28;20065;-65
2022/03/11 10:07:36;;;;;;;30.80;16.70;;;;;;;14.21;46.12;100630.72;8328330;28;20033;-65
2022/03/11 10:11:37;;;;;;;28.77;15.60;;;;;;;14.52;45.48;100624.59;8306644;28;20034;-65
2022/03/11 10:15:40;;;;;;;28.20;16.25;;;;;;;14.07;46.43;100606.81;8289719;28;20368;-65
2022/03/11 10:19:59;;;;;;;29.35;15.75;;;;;;;16.08;44.20;100605.41;8320905;28;20094;-65
2022/03/11 10:24:01;;;;;;;28.90;15.25;;;;;;;15.73;44.01;100588.44;8356081;28;20056;-65
2022/03/11 10:28:06;;;;;;;28.50;15.45;;;;;;;14.76;44.41;100592.03;8355692;28;20060;-65
2022/03/11 10:32:07;;;;;;;32.60;14.68;;;;;;;15.12;44.70;100584.47;8371897;28;20064;-65
2022/03/11 10:36:11;;;;;;;34.33;16.08;;;;;;;15.02;44.88;100586.50;8355311;28;20037;-65
2022/03/11 10:40:12;;;;;;;30.20;16.43;;;;;;;14.93;44.72;100584.78;8370950;28;20448;-66
2022/03/11 10:44:12;;;;;;;31.67;16.02;;;;;;;15.61;44.29;100572.59;8335248;28;20103;-65
2022/03/11 10:48:14;;;;;;;28.95;14.80;;;;;;;15.21;45.01;100584.31;8312268;28;20041;-65
2022/03/11 10:52:26;;;;;;;28.77;14.48;;;;;;;15.21;44.67;100573.41;8322149;28;20156;-66
2022/03/11 10:56:34;;;;;;;27.27;13.90;;;;;;;15.69;44.14;100562.56;8315885;28;20046;-65
2022/03/11 11:00:39;;;;;;;30.80;15.77;;;;;;;16.07;42.88;100571.00;8311799;28;20045;-66
2022/03/11 11:04:42;;;;;;;30.15;15.60;;;;;;;15.92;43.98;100562.66;8310864;28;20553;-65
2022/03/11 11:08:43;;;;;;;26.48;16.10;;;;;;;16.11;43.73;100545.06;8315959;28;20514;-66
2022/03/11 11:12:46;;;;;;;28.05;15.40;;;;;;;16.78;42.25;100558.13;8314548;28;20400;-65
2022/03/11 11:16:48;;;;;;;28.05;16.08;;;;;;;16.84;41.85;100560.13;8314519;28;20068;-66
2022/03/11 11:20:53;;;;;;;24.58;14.75;;;;;;;17.20;42.24;100545.69;8329345;28;20041;-66
2022/03/11 11:24:55;;;;;;;26.25;15.02;;;;;;;17.23;41.50;100534.41;8315879;28;20519;-66
2022/03/11 11:28:59;;;;;;;26.08;13.95;;;;;;;16.53;42.45;100521.06;8315589;28;20072;-66
2022/03/11 11:33:00;;;;;;;29.50;15.77;;;;;;;16.21;42.80;100512.97;8314989;28;20054;-66
2022/03/11 11:37:01;;;;;;;24.15;14.20;;;;;;;17.05;42.10;100508.44;8312477;28;20103;-66
2022/03/11 11:41:23;;;;;;;27.35;16.30;;;;;;;16.52;42.40;100490.19;8314151;28;20121;-66
2022/03/11 11:45:40;;;;;;;26.33;15.38;;;;;;;17.11;41.59;100504.97;8314487;28;20436;-65
2022/03/11 11:49:45;;;;;;;25.60;15.45;;;;;;;16.71;42.51;100476.06;8316382;28;20037;-65
2022/03/11 11:58:18;;;;;;;24.20;14.98;;;;;;;17.21;41.37;100464.59;8374315;28;20115;-65
2022/03/11 12:02:31;;;;;;;27.02;15.30;;;;;;;17.80;41.87;100449.97;8342601;28;20478;-64
2022/03/11 12:07:00;;;;;;;29.83;15.55;;;;;;;17.49;40.08;100444.69;8342611;28;20466;-64
2022/03/11 12:11:01;;;;;;;22.80;14.18;;;;;;;17.25;40.30;100441.31;8344710;28;20460;-64
2022/03/11 12:15:11;;;;;;;23.95;14.60;;;;;;;17.23;41.12;100440.66;8346683;28;20122;-64
2022/03/11 12:19:40;;;;;;;28.80;15.90;;;;;;;17.71;40.92;100428.41;8343157;28;20072;-65
2022/03/11 12:23:41;;;;;;;24.42;14.60;;;;;;;17.94;40.72;100430.00;8329584;28;20458;-64
2022/03/11 12:28:21;;;;;;;26.05;14.10;;;;;;;17.50;41.88;100426.38;8381260;28;20033;-64
2022/03/11 12:32:22;;;;;;;29.08;15.27;;;;;;;17.54;40.97;100435.94;8315081;28;20037;-64
2022/03/11 12:36:24;;;;;;;25.58;14.95;;;;;;;17.18;41.84;100418.50;8313851;28;20443;-64
2022/03/11 12:40:27;;;;;;;21.73;14.23;;;;;;;17.97;41.82;100413.19;8316970;28;20521;-64
2022/03/11 12:44:28;;;;;;;25.42;14.45;;;;;;;17.69;42.47;100398.50;8350422;28;20032;-64
2022/03/11 12:48:30;;;;;;;27.15;15.10;;;;;;;17.76;41.53;100377.56;8401588;28;20046;-64
2022/03/11 12:52:40;;;;;;;26.70;14.52;;;;;;;17.33;41.88;100387.41;8392531;28;20106;-64
2022/03/11 12:56:41;;;;;;;24.52;13.98;;;;;;;17.05;42.51;100389.06;8389569;28;20045;-64
2022/03/11 13:00:44;;;;;;;28.08;14.43;;;;;;;16.75;43.36;100392.78;8396778;28;20044;-64
2022/03/11 13:04:45;;;;;;;23.77;14.35;;;;;;;15.77;44.66;100375.47;8379467;28;20040;-64
2022/03/11 13:08:46;;;;;;;27.65;14.45;;;;;;;15.52;45.04;100378.28;8373258;28;20460;-64
2022/03/11 13:12:50;;;;;;;26.73;14.85;;;;;;;15.45;45.78;100374.56;8364534;28;20076;-65
2022/03/11 13:16:52;;;;;;;27.13;14.57;;;;;;;15.12;45.49;100361.16;8361206;28;20041;-65
2022/03/11 13:20:56;;;;;;;31.45;14.13;;;;;;;14.83;45.44;100360.88;8389013;28;20051;-64
2022/03/11 13:25:04;;;;;;;30.35;15.98;;;;;;;14.92;46.33;100355.25;8374392;28;20036;-65
2022/03/11 13:29:07;;;;;;;24.88;14.02;;;;;;;14.92;45.73;100360.72;8397784;28;20037;-65
2022/03/11 13:33:20;;;;;;;26.92;15.25;;;;;;;15.00;45.79;100324.41;8372509;28;20127;-64
2022/03/11 13:37:22;;;;;;;26.05;13.98;;;;;;;14.92;45.53;100330.75;8355298;28;20061;-64
2022/03/11 13:41:26;;;;;;;26.20;13.55;;;;;;;14.86;45.38;100328.72;8356177;28;20582;-65
2022/03/11 13:45:28;;;;;;;27.98;14.07;;;;;;;14.89;45.32;100328.38;8338108;28;20033;-65
2022/03/11 13:49:50;;;;;;;30.52;15.85;;;;;;;14.83;45.25;100334.53;8391836;28;20055;-65
2022/03/11 13:53:57;;;;;;;31.17;14.38;;;;;;;15.12;45.54;100315.72;8383273;28;20065;-65
2022/03/11 13:58:20;;;;;;;29.50;14.32;;;;;;;15.06;45.66;100302.81;8385097;28;20489;-65
2022/03/11 14:02:24;;;;;;;26.27;14.88;;;;;;;15.12;45.14;100301.25;8354144;28;20408;-65
2022/03/11 14:06:30;;;;;;;28.52;15.13;;;;;;;15.42;44.55;100309.53;8371168;28;20397;-65
2022/03/11 14:10:35;;;;;;;29.30;14.93;;;;;;;15.05;43.79;100306.56;8371557;28;20033;-64
2022/03/11 14:14:41;;;;;;;25.15;14.52;;;;;;;15.10;43.70;100304.16;8372859;28;20040;-65
2022/03/11 14:18:43;;;;;;;28.38;14.20;;;;;;;15.23;43.47;100296.28;8393436;28;20078;-65
2022/03/11 14:22:43;;;;;;;26.75;13.88;;;;;;;15.16;43.56;100297.16;8378796;28;20048;-65
2022/03/11 14:26:44;;;;;;;27.20;14.00;;;;;;;15.38;43.72;100289.13;8372090;28;20036;-65
2022/03/11 14:30:45;;;;;;;25.42;13.90;;;;;;;15.40;43.55;100284.31;8396269;28;20321;-65
2022/03/11 14:34:45;;;;;;;27.02;14.57;;;;;;;15.56;43.83;100283.41;8356351;28;20536;-65
2022/03/11 14:38:47;;;;;;;28.35;14.68;;;;;;;15.51;43.78;100300.28;8335044;28;20564;-65
2022/03/11 14:42:48;;;;;;;24.58;14.35;;;;;;;15.48;43.56;100280.72;8363602;28;20048;-65
2022/03/11 14:46:49;;;;;;;24.13;13.60;;;;;;;15.49;43.39;100283.25;8339041;28;20045;-65
2022/03/11 14:50:49;;;;;;;26.35;13.13;;;;;;;15.36;43.22;100293.84;8365754;28;20078;-65
2022/03/11 14:54:50;;;;;;;31.63;14.57;;;;;;;15.30;43.05;100286.38;8345219;28;20643;-65
2022/03/11 14:58:50;;;;;;;26.80;13.45;;;;;;;15.30;43.03;100286.38;8361268;28;20467;-65
2022/03/11 15:02:50;;;;;;;33.00;14.57;;;;;;;15.36;43.12;100288.41;8355927;28;20043;-65
2022/03/11 15:06:52;;;;;;;27.17;14.30;;;;;;;15.20;43.20;100282.16;8382574;28;20275;-65
2022/03/11 15:10:53;;;;;;;37.65;15.07;;;;;;;14.94;43.81;100271.53;8369946;28;20100;-64
2022/03/11 15:14:55;;;;;;;23.58;13.82;;;;;;;14.99;43.46;100277.31;8364333;28;20411;-64
2022/03/11 15:18:56;;;;;;;26.60;12.95;;;;;;;15.12;43.28;100291.22;8379314;28;20095;-64
2022/03/11 15:22:57;;;;;;;26.70;14.25;;;;;;;15.07;43.10;100282.72;8393171;28;20497;-65
2022/03/11 15:27:03;;;;;;;30.40;15.45;;;;;;;15.07;43.84;100282.72;8372141;28;20429;-65
2022/03/11 15:31:03;;;;;;;24.48;14.52;;;;;;;15.06;43.63;100283.75;8368053;28;20405;-65
2022/03/11 15:35:04;;;;;;;35.78;14.80;;;;;;;15.02;43.64;100267.94;8367865;28;20056;-65
2022/03/11 15:39:05;;;;;;;24.30;13.85;;;;;;;14.96;43.69;100277.66;8373945;28;20201;-65
2022/03/11 15:43:06;;;;;;;23.73;13.52;;;;;;;14.88;44.15;100272.22;8374041;28;20065;-65
2022/03/11 15:47:07;;;;;;;25.42;14.85;;;;;;;14.81;44.04;100273.09;8371886;28;20047;-65
2022/03/11 15:51:07;;;;;;;27.75;14.20;;;;;;;14.72;44.19;100283.16;8374524;28;20044;-65
2022/03/11 15:55:12;;;;;;;21.02;12.70;;;;;;;14.68;43.79;100264.63;8350917;28;20524;-65
2022/03/11 15:59:12;;;;;;;27.00;15.13;;;;;;;14.56;44.30;100266.84;8376710;28;20044;-65
2022/03/11 16:03:13;;;;;;;23.85;13.88;;;;;;;14.47;44.63;100269.75;8344287;28;20131;-65
2022/03/11 16:07:13;;;;;;;26.05;13.88;;;;;;;14.38;44.84;100266.19;8352668;28;20532;-65
2022/03/11 16:11:14;;;;;;;26.30;14.00;;;;;;;14.25;45.37;100279.47;8366249;28;20068;-65
2022/03/11 16:15:15;;;;;;;28.35;14.18;;;;;;;14.15;45.09;100262.41;8374922;28;20292;-65
2022/03/11 16:19:15;;;;;;;27.13;15.10;;;;;;;14.06;44.96;100287.88;8365941;28;20098;-65
2022/03/11 16:23:16;;;;;;;26.83;15.95;;;;;;;13.92;45.42;100283.13;8345013;28;20497;-65
2022/03/11 16:27:18;;;;;;;30.30;14.95;;;;;;;13.81;45.99;100281.59;8372410;28;20037;-65
2022/03/11 16:31:19;;;;;;;26.00;14.07;;;;;;;13.82;45.72;100298.75;8352197;28;20519;-65
2022/03/11 16:35:20;;;;;;;26.60;13.95;;;;;;;13.69;45.87;100304.66;8343122;28;20417;-65
2022/03/11 16:39:20;;;;;;;33.05;13.95;;;;;;;13.64;45.70;100306.16;8354232;28;20500;-64
2022/03/11 16:43:21;;;;;;;27.65;14.35;;;;;;;13.51;46.12;100311.22;8397917;28;20040;-64
2022/03/11 16:47:21;;;;;;;31.90;15.45;;;;;;;13.41;46.25;100305.06;8389197;28;20044;-65
2022/03/11 16:51:24;;;;;;;26.95;13.93;;;;;;;13.37;46.19;100317.28;8379705;28;20140;-65
2022/03/11 16:55:26;;;;;;;26.33;14.43;;;;;;;13.28;46.51;100318.25;8360527;28;20310;-65
2022/03/11 16:59:26;;;;;;;25.15;14.43;;;;;;;13.27;46.29;100336.38;8369213;28;20041;-65
2022/03/11 17:03:28;;;;;;;23.92;13.98;;;;;;;13.12;46.66;100327.13;8370099;28;20118;-64
2022/03/11 17:07:28;;;;;;;35.13;15.88;;;;;;;12.95;47.34;100329.91;8400261;28;20552;-64
2022/03/11 17:11:31;;;;;;;33.65;14.60;;;;;;;12.86;47.54;100330.84;8423195;28;20486;-64
2022/03/11 17:15:31;;;;;;;29.48;14.18;;;;;;;12.86;47.27;100333.56;8423824;28;20043;-64
2022/03/11 17:19:32;;;;;;;27.00;14.52;;;;;;;12.76;47.38;100338.25;8403122;28;20123;-64
2022/03/11 17:23:32;;;;;;;23.85;13.63;;;;;;;12.78;47.26;100339.78;8435420;28;20052;-65
2022/03/11 17:27:33;;;;;;;24.63;13.35;;;;;;;12.85;46.97;100340.00;8423776;28;20162;-64
2022/03/11 17:31:33;;;;;;;21.08;12.57;;;;;;;12.72;47.27;100339.59;8374569;28;20056;-64
2022/03/11 17:35:34;;;;;;;27.88;13.38;;;;;;;12.67;47.24;100344.63;8366293;28;20454;-64
2022/03/11 17:39:34;;;;;;;24.60;13.25;;;;;;;12.65;47.03;100354.78;8393041;28;20044;-64
2022/03/11 17:43:35;;;;;;;26.02;13.48;;;;;;;12.62;47.06;100355.94;8354556;28;20470;-64
2022/03/11 17:47:37;;;;;;;22.25;12.80;;;;;;;12.58;47.44;100370.84;8387953;28;20067;-64
2022/03/11 17:51:38;;;;;;;27.60;12.82;;;;;;;12.52;47.27;100365.19;8372633;28;20049;-64
2022/03/11 17:55:39;;;;;;;22.38;12.52;;;;;;;12.51;47.12;100382.47;8365287;28;20056;-65
2022/03/11 17:59:39;;;;;;;22.35;12.55;;;;;;;12.48;47.30;100385.50;8374917;28;20072;-64
2022/03/11 18:03:40;;;;;;;26.17;12.00;;;;;;;12.72;46.22;100383.00;8388148;28;20044;-64
2022/03/11 18:07:40;;;;;;;22.67;11.85;;;;;;;12.66;46.20;100389.03;8369751;28;20061;-64
2022/03/11 18:11:40;;;;;;;22.35;11.52;;;;;;;12.55;46.65;100389.28;8349085;28;20457;-64
2022/03/11 18:15:41;;;;;;;23.23;11.43;;;;;;;12.62;46.58;100379.50;8369243;28;20108;-64
2022/03/11 18:19:41;;;;;;;24.02;12.57;;;;;;;12.51;46.43;100385.19;8383069;28;20040;-64
2022/03/11 18:23:42;;;;;;;20.48;11.93;;;;;;;12.42;46.92;100397.81;8375775;28;20072;-64
2022/03/11 18:27:42;;;;;;;21.88;13.05;;;;;;;12.42;46.81;100391.53;8360004;28;20183;-64
2022/03/11 18:31:43;;;;;;;23.23;12.05;;;;;;;12.32;47.38;100390.78;8369881;28;20041;-64